Time;durP1;ratioP1;P1;durP2;ratioP2;P2;SDS_P1;SDS_P2;PMS_P1;PMS_P2;Temp;Humidity;BMP_temperature;BMP_pressure;BME280_temperature;BME280_humidity;BME280_pressure;Samples;Min_cycle;Max_cycle;Signal;HPM_P1;HPM_P2
2023/03/29 00:01:01;;;;;;;3.80;1.20;;;;;;;5.28;100.00;96594.78;6180272;23;20048;-83
2023/03/29 00:03:27;;;;;;;3.93;2.00;;;;;;;5.19;100.00;96598.91;6180636;23;20013;-83
2023/03/29 00:06:01;;;;;;;4.70;1.63;;;;;;;5.28;100.00;96600.00;6205938;23;20609;-82
2023/03/29 00:08:30;;;;;;;4.13;1.67;;;;;;;5.34;100.00;96607.34;6181698;23;20013;-83
2023/03/29 00:10:59;;;;;;;4.37;1.80;;;;;;;5.24;100.00;96609.84;6205724;23;20091;-82
2023/03/29 00:13:26;;;;;;;4.87;1.77;;;;;;;5.28;100.00;96600.81;6207573;23;20013;-82
2023/03/29 00:15:55;;;;;;;4.47;1.70;;;;;;;5.32;100.00;96606.63;6182120;23;20020;-82
2023/03/29 00:18:21;;;;;;;6.23;1.80;;;;;;;5.25;100.00;96601.06;6189329;23;20012;-84
2023/03/29 00:20:56;;;;;;;5.93;2.00;;;;;;;5.27;100.00;96596.56;6187369;23;20039;-82
2023/03/29 00:23:24;;;;;;;4.47;2.00;;;;;;;5.16;100.00;96586.09;6180409;23;20027;-82
2023/03/29 00:25:51;;;;;;;6.70;2.70;;;;;;;5.19;100.00;96588.47;6181145;23;20013;-82
2023/03/29 00:28:17;;;;;;;4.30;2.40;;;;;;;5.09;100.00;96577.91;6205243;23;20016;-82
2023/03/29 00:30:42;;;;;;;5.07;2.30;;;;;;;5.01;100.00;96580.28;6180714;23;20025;-83
2023/03/29 00:33:08;;;;;;;5.73;2.57;;;;;;;5.03;100.00;96559.31;6179725;23;20055;-83
2023/03/29 00:35:37;;;;;;;4.10;1.93;;;;;;;5.04;100.00;96554.00;6181313;23;20087;-82
2023/03/29 00:38:04;;;;;;;4.93;2.80;;;;;;;5.03;100.00;96557.56;6180442;23;20020;-83
2023/03/29 00:40:32;;;;;;;5.50;2.67;;;;;;;4.96;100.00;96558.94;6205154;23;20013;-82
2023/03/29 00:42:59;;;;;;;4.13;2.23;;;;;;;5.02;100.00;96558.47;6205327;23;20020;-82
2023/03/29 00:45:30;;;;;;;5.63;2.30;;;;;;;5.08;100.00;96546.78;6179284;23;20021;-82
2023/03/29 00:48:06;;;;;;;6.43;2.83;;;;;;;5.06;100.00;96548.66;6178167;23;20062;-82
2023/03/29 00:50:50;;;;;;;5.00;2.70;;;;;;;5.12;100.00;96553.41;6178651;23;20349;-82
2023/03/29 00:53:22;;;;;;;;;;;;;;;5.06;100.00;96543.44;6178550;23;20020;-81
2023/03/29 00:55:55;;;;;;;7.23;2.33;;;;;;;4.89;100.00;96540.34;6203857;23;20359;-83
2023/03/29 00:58:27;;;;;;;6.38;2.53;;;;;;;4.90;100.00;96525.56;6152230;23;20460;-82
2023/03/29 01:01:16;;;;;;;5.53;3.03;;;;;;;4.79;100.00;96546.38;6154786;23;20116;-83
2023/03/29 01:03:48;;;;;;;5.80;2.60;;;;;;;4.83;100.00;96551.25;6203003;23;20456;-83
2023/03/29 01:06:21;;;;;;;4.50;2.50;;;;;;;4.66;100.00;96541.25;6203190;23;20046;-83
2023/03/29 01:08:57;;;;;;;4.10;2.30;;;;;;;4.83;100.00;96543.44;6204104;23;20092;-83
2023/03/29 01:11:52;;;;;;;4.30;2.50;;;;;;;4.84;100.00;96546.88;6180253;23;20020;-82
2023/03/29 01:14:22;;;;;;;5.93;2.53;;;;;;;4.86;100.00;96537.13;6155886;23;20009;-83
2023/03/29 01:16:48;;;;;;;6.13;2.90;;;;;;;4.72;100.00;96535.59;6205033;23;20051;-82
2023/03/29 01:19:18;;;;;;;5.33;2.67;;;;;;;4.76;100.00;96530.97;6181087;23;20437;-82
2023/03/29 01:21:50;;;;;;;4.43;2.40;;;;;;;4.69;100.00;96534.06;6206134;23;20104;-81
2023/03/29 01:25:06;;;;;;;4.93;2.43;;;;;;;4.69;100.00;96526.25;6181033;23;20016;-83
2023/03/29 01:27:54;;;;;;;4.23;2.00;;;;;;;4.65;100.00;96531.78;6090935;23;20085;-83
2023/03/29 01:30:30;;;;;;;6.73;2.17;;;;;;;4.70;100.00;96524.47;6043135;23;20048;-82
2023/03/29 01:33:01;;;;;;;5.50;2.23;;;;;;;4.54;100.00;96516.13;6153639;23;20051;-83
2023/03/29 01:35:45;;;;;;;5.50;2.67;;;;;;;4.52;100.00;96511.03;6205599;23;20012;-83
2023/03/29 01:38:23;;;;;;;5.07;2.25;;;;;;;4.54;100.00;96516.13;6205829;23;20024;-83
2023/03/29 01:40:49;;;;;;;4.93;2.30;;;;;;;4.60;100.00;96516.50;6180564;23;20020;-83
2023/03/29 01:43:20;;;;;;;4.03;2.43;;;;;;;4.39;100.00;96503.34;6185808;23;20044;-83
2023/03/29 01:45:49;;;;;;;5.93;2.40;;;;;;;4.53;100.00;96506.66;6164907;23;20005;-81
2023/03/29 01:48:23;;;;;;;5.20;2.20;;;;;;;4.43;100.00;96498.72;6215457;23;20083;-83
2023/03/29 01:50:53;;;;;;;5.00;2.33;;;;;;;4.32;100.00;96491.69;6182009;23;20015;-82
2023/03/29 01:53:37;;;;;;;4.87;2.30;;;;;;;4.33;100.00;96492.53;6180187;23;20009;-83
2023/03/29 01:56:10;;;;;;;7.13;2.17;;;;;;;4.21;100.00;96489.06;6206098;23;20017;-83
2023/03/29 01:58:42;;;;;;;4.10;2.17;;;;;;;4.20;100.00;96488.25;6182935;23;20017;-81
2023/03/29 02:01:16;;;;;;;4.77;2.27;;;;;;;4.16;100.00;96480.78;6181558;23;20488;-83
2023/03/29 02:03:48;;;;;;;5.87;2.30;;;;;;;4.17;100.00;96472.03;6223878;23;20564;-83
2023/03/29 02:06:19;;;;;;;3.60;1.83;;;;;;;4.12;100.00;96474.13;6207531;23;20021;-83
2023/03/29 02:08:46;;;;;;;4.87;2.70;;;;;;;4.20;100.00;96477.81;6183527;23;20083;-83
2023/03/29 02:11:13;;;;;;;4.83;2.30;;;;;;;4.18;100.00;96477.09;6182322;23;20377;-83
2023/03/29 02:13:39;;;;;;;4.30;1.90;;;;;;;4.07;100.00;96476.25;6158061;23;20551;-83
2023/03/29 02:16:11;;;;;;;6.87;2.07;;;;;;;4.17;100.00;96479.81;6182494;23;20013;-83
2023/03/29 02:18:55;;;;;;;4.90;2.33;;;;;;;4.17;100.00;96472.03;6181940;23;20009;-83
2023/03/29 02:21:39;;;;;;;4.15;2.05;;;;;;;4.08;100.00;96472.69;6182173;23;20016;-83
2023/03/29 02:24:10;;;;;;;3.93;2.20;;;;;;;4.15;100.00;96466.09;6208076;23;20040;-83
2023/03/29 02:26:37;;;;;;;4.27;2.10;;;;;;;4.06;100.00;96469.38;6182742;23;20063;-83
2023/03/29 02:29:03;;;;;;;5.67;2.13;;;;;;;4.16;100.00;96460.78;6184129;23;20021;-82
2023/03/29 02:31:49;;;;;;;5.57;2.40;;;;;;;4.18;100.00;96461.47;6182471;23;20092;-83
2023/03/29 02:34:29;;;;;;;4.37;2.20;;;;;;;4.04;100.00;96463.47;6181709;23;20013;-83
2023/03/29 02:37:05;;;;;;;5.70;2.37;;;;;;;4.08;100.00;96464.88;6182315;23;20441;-83
2023/03/29 02:39:33;;;;;;;5.07;2.73;;;;;;;4.06;100.00;96458.94;6207749;23;20059;-83
2023/03/29 02:42:01;;;;;;;4.97;2.10;;;;;;;4.08;100.00;96441.47;6181596;23;20013;-84
2023/03/29 02:44:30;;;;;;;4.73;2.53;;;;;;;4.16;100.00;96454.75;6207788;23;20425;-83
2023/03/29 02:47:17;;;;;;;5.83;2.50;;;;;;;4.11;100.00;96443.84;6207727;23;20041;-82
2023/03/29 02:49:43;;;;;;;5.07;2.47;;;;;;;4.12;100.00;96428.09;6182090;23;20751;-82
2023/03/29 02:52:15;;;;;;;6.77;2.70;;;;;;;4.17;100.00;96420.78;6181532;23;20013;-83
2023/03/29 02:54:44;;;;;;;5.77;2.73;;;;;;;4.18;100.00;96417.22;6177259;23;20009;-83
2023/03/29 02:57:11;;;;;;;4.97;2.23;;;;;;;4.23;100.00;96411.69;6182763;23;20020;-82
2023/03/29 02:59:42;;;;;;;8.03;3.33;;;;;;;4.18;100.00;96406.81;6182610;23;20045;-83
2023/03/29 03:02:10;;;;;;;6.23;3.00;;;;;;;4.16;100.00;96403.53;6181704;23;20071;-83
2023/03/29 03:04:37;;;;;;;7.97;3.40;;;;;;;4.22;100.00;96399.59;6204531;23;20119;-83
2023/03/29 03:07:06;;;;;;;8.33;2.73;;;;;;;4.16;100.00;96400.09;6180643;23;20039;-83
2023/03/29 03:09:31;;;;;;;7.90;3.23;;;;;;;4.18;100.00;96395.59;6179000;23;20036;-83
2023/03/29 03:12:08;;;;;;;7.30;3.20;;;;;;;4.21;100.00;96390.97;6179072;23;20329;-83
2023/03/29 03:14:34;;;;;;;7.37;3.70;;;;;;;4.27;100.00;96389.69;6179835;23;20064;-83
2023/03/29 03:16:59;;;;;;;7.43;3.37;;;;;;;4.40;100.00;96390.41;6203453;23;20020;-82
2023/03/29 03:19:25;;;;;;;11.33;4.10;;;;;;;4.49;100.00;96389.72;6178638;23;20013;-82
2023/03/29 03:21:51;;;;;;;9.23;3.70;;;;;;;4.39;100.00;96391.38;6179570;23;20093;-83
2023/03/29 03:24:17;;;;;;;6.37;3.10;;;;;;;4.33;100.00;96381.41;6155953;23;20084;-83
2023/03/29 03:26:45;;;;;;;8.30;3.33;;;;;;;4.43;100.00;96379.75;6181338;23;20028;-82
2023/03/29 03:29:12;;;;;;;8.23;3.27;;;;;;;4.39;100.00;96380.09;6156364;23;20016;-82
2023/03/29 03:32:11;;;;;;;9.63;3.87;;;;;;;4.37;100.00;96371.59;6165229;23;20431;-82
2023/03/29 03:34:57;;;;;;;8.40;3.93;;;;;;;4.34;100.00;96377.84;6157039;23;20020;-82
2023/03/29 03:37:26;;;;;;;7.13;3.37;;;;;;;4.37;100.00;96380.22;6181426;23;20017;-82
2023/03/29 03:39:52;;;;;;;7.93;3.50;;;;;;;4.28;100.00;96375.72;6181518;23;20045;-82
2023/03/29 03:42:18;;;;;;;11.00;4.10;;;;;;;4.35;100.00;96369.09;6182447;23;20028;-82
2023/03/29 03:44:45;;;;;;;8.40;4.63;;;;;;;4.23;100.00;96368.28;6157889;23;20012;-83
2023/03/29 03:47:29;;;;;;;8.97;3.80;;;;;;;4.22;100.00;96366.59;6217459;23;20028;-84
2023/03/29 03:50:00;;;;;;;10.03;5.00;;;;;;;4.11;100.00;96363.16;6158271;23;20013;-82
2023/03/29 03:52:26;;;;;;;11.57;5.47;;;;;;;4.11;100.00;96368.38;6155462;23;20046;-82
2023/03/29 03:54:52;;;;;;;13.10;7.07;;;;;;;4.15;100.00;96373.22;6180790;23;20023;-82
2023/03/29 03:57:36;;;;;;;13.67;8.10;;;;;;;4.36;100.00;96365.56;6159153;23;20028;-82
2023/03/29 04:00:18;;;;;;;12.43;6.40;;;;;;;4.26;100.00;96356.81;6181504;23;20079;-82
2023/03/29 04:02:48;;;;;;;9.50;5.97;;;;;;;4.32;100.00;96353.69;6205843;23;20352;-82
2023/03/29 04:05:15;;;;;;;11.03;5.13;;;;;;;4.39;100.00;96341.03;6205644;23;20020;-82
2023/03/29 04:07:45;;;;;;;12.80;5.13;;;;;;;4.39;100.00;96349.72;6181092;23;20548;-82
2023/03/29 04:10:29;;;;;;;10.50;5.73;;;;;;;4.39;100.00;96344.50;6181108;23;20092;-82
2023/03/29 04:13:45;;;;;;;8.07;4.47;;;;;;;4.33;100.00;96346.75;6180555;23;20033;-82
2023/03/29 04:16:37;;;;;;;9.60;4.70;;;;;;;4.37;100.00;96346.38;6147950;23;20024;-81
2023/03/29 04:19:19;;;;;;;7.53;3.90;;;;;;;4.30;100.00;96345.19;6180959;23;20110;-82
2023/03/29 04:21:48;;;;;;;9.23;4.47;;;;;;;4.36;100.00;96346.47;6175639;23;20072;-82
2023/03/29 04:24:51;;;;;;;9.13;3.97;;;;;;;4.31;100.00;96352.06;6175846;23;20432;-83
2023/03/29 04:27:44;;;;;;;6.93;3.47;;;;;;;4.32;100.00;96351.09;6175632;23;20399;-82
2023/03/29 04:30:23;;;;;;;8.07;3.67;;;;;;;4.38;100.00;96347.22;6176068;23;20735;-82
2023/03/29 04:33:15;;;;;;;9.50;6.20;;;;;;;4.38;100.00;96349.81;6130219;23;20089;-82
2023/03/29 04:35:45;;;;;;;8.73;4.50;;;;;;;4.38;100.00;96353.25;6205801;23;20024;-82
2023/03/29 04:38:13;;;;;;;8.20;5.03;;;;;;;4.38;100.00;96352.41;6157366;23;20009;-82
2023/03/29 04:40:40;;;;;;;12.57;5.73;;;;;;;4.44;100.00;96354.53;6180173;23;20017;-82
2023/03/29 04:43:35;;;;;;;14.63;7.53;;;;;;;4.49;100.00;96347.19;6180776;23;20017;-83
2023/03/29 04:46:19;;;;;;;29.47;15.60;;;;;;;4.51;100.00;96345.31;6201622;23;20012;-82
2023/03/29 04:49:04;;;;;;;10.73;5.07;;;;;;;4.50;100.00;96356.69;6181872;23;20024;-82
2023/03/29 04:51:42;;;;;;;7.95;4.65;;;;;;;4.49;100.00;96361.06;6203648;23;20100;-82
2023/03/29 04:54:09;;;;;;;5.43;2.90;;;;;;;4.50;100.00;96369.72;6179449;23;20017;-83
2023/03/29 04:56:53;;;;;;;11.00;4.18;;;;;;;4.44;100.00;96375.38;6182334;23;20028;-82
2023/03/29 04:59:44;;;;;;;8.17;4.73;;;;;;;4.49;100.00;96368.03;6180159;23;20005;-83
2023/03/29 05:02:31;;;;;;;9.23;5.17;;;;;;;4.55;100.00;96364.94;6149797;23;20063;-82
2023/03/29 05:04:57;;;;;;;9.93;4.13;;;;;;;4.54;100.00;96360.69;6180315;23;20024;-82
2023/03/29 05:07:23;;;;;;;8.17;5.13;;;;;;;4.58;100.00;96363.91;6180716;23;20099;-82
2023/03/29 05:09:49;;;;;;;7.37;4.33;;;;;;;4.61;100.00;96368.88;6180420;23;20017;-82
2023/03/29 05:12:15;;;;;;;7.70;4.17;;;;;;;4.61;100.00;96363.66;6204573;23;20021;-83
2023/03/29 05:14:52;;;;;;;8.70;3.90;;;;;;;4.66;100.00;96371.94;6158966;23;20095;-83
2023/03/29 05:17:20;;;;;;;8.80;4.20;;;;;;;4.62;100.00;96367.91;6184951;23;20023;-83
2023/03/29 05:19:47;;;;;;;9.90;4.40;;;;;;;4.68;100.00;96370.03;6155489;23;20005;-83
2023/03/29 05:22:14;;;;;;;7.63;4.10;;;;;;;4.60;100.00;96359.41;6179446;23;20024;-83
2023/03/29 05:24:40;;;;;;;7.83;4.00;;;;;;;4.61;100.00;96361.88;6205994;23;20353;-83
2023/03/29 05:27:17;;;;;;;7.67;4.30;;;;;;;4.74;100.00;96366.97;6205481;23;20464;-82
2023/03/29 05:29:50;;;;;;;10.03;4.47;;;;;;;4.66;100.00;96364.97;6182373;23;20465;-82
2023/03/29 05:32:28;;;;;;;8.80;4.07;;;;;;;4.81;100.00;96365.53;6190839;23;20008;-83
2023/03/29 05:34:54;;;;;;;8.97;4.53;;;;;;;4.85;100.00;96364.34;6179718;23;20111;-83
2023/03/29 05:37:20;;;;;;;9.77;4.57;;;;;;;4.91;100.00;96353.44;6179242;23;20385;-83
2023/03/29 05:39:53;;;;;;;;;;;;;;;4.87;100.00;96357.25;6203941;23;20008;-84
2023/03/29 05:42:26;;;;;;;8.70;4.40;;;;;;;4.95;100.00;96352.22;6204042;23;19912;-84
2023/03/29 05:44:58;;;;;;;8.07;3.90;;;;;;;5.01;100.00;96357.94;6179862;23;20067;-84
2023/03/29 05:47:24;;;;;;;8.13;4.10;;;;;;;4.97;100.00;96354.75;6180889;23;20013;-84
2023/03/29 05:49:50;;;;;;;8.30;3.90;;;;;;;5.04;100.00;96360.28;6154798;23;20005;-83
2023/03/29 05:52:20;;;;;;;9.43;4.60;;;;;;;5.15;100.00;96362.88;6204025;23;20005;-84
2023/03/29 05:54:46;;;;;;;10.13;5.63;;;;;;;5.16;100.00;96356.69;6155499;23;20019;-84
2023/03/29 05:57:11;;;;;;;10.83;4.73;;;;;;;5.29;100.00;96346.09;6155380;23;20017;-84
2023/03/29 05:59:38;;;;;;;10.13;4.60;;;;;;;5.22;100.00;96356.19;6179969;23;20004;-84
2023/03/29 06:02:04;;;;;;;8.73;4.77;;;;;;;5.25;100.00;96350.75;6154999;23;20023;-84
2023/03/29 06:04:47;;;;;;;7.67;4.00;;;;;;;5.25;100.00;96355.97;6154724;23;20043;-84
2023/03/29 06:07:33;;;;;;;8.30;3.67;;;;;;;5.38;100.00;96346.19;6164093;23;20052;-84
2023/03/29 06:10:17;;;;;;;9.93;3.90;;;;;;;5.59;100.00;96345.41;6180423;23;20104;-83
2023/03/29 06:12:48;;;;;;;8.53;3.67;;;;;;;5.68;100.00;96342.84;6179536;23;20114;-84
2023/03/29 06:15:21;;;;;;;9.10;4.00;;;;;;;5.82;100.00;96336.50;6155019;23;20020;-84
2023/03/29 06:17:49;;;;;;;6.63;3.63;;;;;;;5.86;100.00;96344.91;6179871;23;20535;-84
2023/03/29 06:20:18;;;;;;;8.40;3.80;;;;;;;6.01;100.00;96337.63;6179406;23;20009;-85
2023/03/29 06:22:50;;;;;;;7.07;3.83;;;;;;;6.09;100.00;96345.63;6177952;23;20020;-84
2023/03/29 06:25:16;;;;;;;9.37;4.73;;;;;;;6.09;100.00;96350.84;6179450;23;20071;-84
2023/03/29 06:27:48;;;;;;;8.83;4.23;;;;;;;6.13;100.00;96350.44;6179953;23;20005;-84
2023/03/29 06:30:19;;;;;;;9.40;4.10;;;;;;;6.16;100.00;96357.19;6179646;23;20021;-84
2023/03/29 06:32:49;;;;;;;9.37;3.97;;;;;;;6.31;100.00;96360.31;6203339;23;20017;-84
2023/03/29 06:35:36;;;;;;;9.67;4.23;;;;;;;6.40;100.00;96358.69;6175789;23;20024;-84
2023/03/29 06:38:06;;;;;;;8.93;5.03;;;;;;;6.48;100.00;96356.28;6178065;23;20020;-84
2023/03/29 06:41:13;;;;;;;8.80;4.50;;;;;;;6.52;100.00;96349.84;6117803;23;20018;-85
2023/03/29 06:44:00;;;;;;;11.87;6.33;;;;;;;6.60;100.00;96357.81;6157730;23;20349;-84
2023/03/29 06:46:33;;;;;;;11.80;6.00;;;;;;;6.72;100.00;96361.19;6156196;23;20092;-84
2023/03/29 06:49:04;;;;;;;8.27;4.63;;;;;;;6.82;100.00;96357.63;6178631;23;20720;-84
2023/03/29 06:51:47;;;;;;;10.53;4.13;;;;;;;6.98;100.00;96359.75;6179219;23;20035;-84
2023/03/29 06:54:13;;;;;;;7.57;4.43;;;;;;;6.99;100.00;96360.56;6179045;23;20024;-84
2023/03/29 06:56:58;;;;;;;7.53;3.77;;;;;;;7.14;100.00;96361.84;6180795;23;20001;-84
2023/03/29 06:59:25;;;;;;;10.10;2.50;;;;;;;7.13;100.00;96365.41;6181675;23;20016;-84
2023/03/29 07:01:57;;;;;;;5.70;2.57;;;;;;;7.37;100.00;96372.06;6158568;23;20021;-84
2023/03/29 07:04:46;;;;;;;5.83;2.80;;;;;;;7.36;100.00;96371.25;6190289;23;20072;-83
2023/03/29 07:07:52;;;;;;;6.03;2.80;;;;;;;7.50;100.00;96370.00;6179097;23;20100;-84
2023/03/29 07:10:51;;;;;;;6.67;2.40;;;;;;;7.56;100.00;96370.28;6208918;23;20524;-84
2023/03/29 07:13:19;;;;;;;7.97;3.07;;;;;;;7.61;100.00;96367.25;6223563;23;20064;-85
2023/03/29 07:15:48;;;;;;;5.57;2.93;;;;;;;7.76;100.00;96365.88;6172539;23;20028;-84
2023/03/29 07:18:18;;;;;;;6.17;3.10;;;;;;;7.75;100.00;96368.66;6181642;23;20396;-84
2023/03/29 07:20:46;;;;;;;7.33;3.03;;;;;;;7.77;100.00;96372.78;6206367;23;20021;-83
2023/03/29 07:23:12;;;;;;;5.30;2.17;;;;;;;7.87;100.00;96371.94;6179122;23;20648;-84
2023/03/29 07:25:39;;;;;;;4.33;1.87;;;;;;;7.84;100.00;96374.84;6156771;23;20013;-84
2023/03/29 07:28:06;;;;;;;5.77;2.23;;;;;;;7.76;100.00;96371.13;6207394;23;20020;-84
2023/03/29 07:30:33;;;;;;;9.00;3.77;;;;;;;7.84;100.00;96382.69;6205938;23;20013;-84
2023/03/29 07:33:14;;;;;;;7.90;2.60;;;;;;;7.93;100.00;96387.94;6180848;23;20812;-84
2023/03/29 07:36:01;;;;;;;6.93;2.10;;;;;;;7.94;100.00;96383.50;6160868;23;20024;-84
2023/03/29 07:38:27;;;;;;;4.67;1.50;;;;;;;8.06;100.00;96385.03;6181391;23;20009;-84
2023/03/29 07:41:02;;;;;;;3.55;1.50;;;;;;;8.17;100.00;96382.25;6203044;23;20480;-84
2023/03/29 07:43:45;;;;;;;2.97;1.40;;;;;;;8.01;100.00;96384.59;6181344;23;20017;-84
2023/03/29 07:46:14;;;;;;;5.83;1.70;;;;;;;7.98;100.00;96387.50;6180402;23;20017;-84
2023/03/29 07:48:40;;;;;;;7.70;1.80;;;;;;;8.02;100.00;96391.53;6181102;23;20036;-84
2023/03/29 07:51:08;;;;;;;7.37;2.07;;;;;;;7.99;100.00;96386.56;6180433;23;20013;-84
2023/03/29 07:53:41;;;;;;;;;;;;;;;8.04;100.00;96387.78;6182116;23;20493;-84
2023/03/29 07:56:23;;;;;;;4.73;1.63;;;;;;;8.17;100.00;96397.97;6205642;23;19912;-84
2023/03/29 07:58:56;;;;;;;5.25;1.77;;;;;;;8.29;100.00;96384.72;6157481;23;20012;-84
2023/03/29 08:01:22;;;;;;;5.33;2.23;;;;;;;8.27;100.00;96401.38;6180505;23;20021;-84
2023/03/29 08:04:06;;;;;;;6.30;1.70;;;;;;;8.40;100.00;96397.69;6180964;23;20075;-84
2023/03/29 08:06:51;;;;;;;6.80;2.47;;;;;;;8.68;100.00;96399.38;6181028;23;20928;-84
2023/03/29 08:09:18;;;;;;;4.27;1.70;;;;;;;8.67;100.00;96396.91;6205651;23;20017;-83
2023/03/29 08:11:44;;;;;;;6.60;2.27;;;;;;;9.12;100.00;96394.38;6205116;23;20026;-84
2023/03/29 08:14:23;;;;;;;3.30;1.40;;;;;;;9.34;100.00;96392.31;6180694;23;20063;-84
2023/03/29 08:16:57;;;;;;;5.17;1.63;;;;;;;9.47;100.00;96390.16;6203721;23;20004;-84
2023/03/29 08:19:24;;;;;;;3.73;1.77;;;;;;;9.62;100.00;96390.47;6156320;23;20013;-84
2023/03/29 08:22:10;;;;;;;4.13;1.57;;;;;;;9.70;100.00;96392.34;6174256;23;20504;-84
2023/03/29 08:25:01;;;;;;;3.97;1.70;;;;;;;9.59;100.00;96399.47;6177285;23;20025;-84
2023/03/29 08:27:33;;;;;;;3.87;1.70;;;;;;;9.55;100.00;96397.28;6156830;23;20017;-84
2023/03/29 08:29:59;;;;;;;5.63;1.63;;;;;;;9.65;100.00;96388.34;6204950;23;20009;-84
2023/03/29 08:32:25;;;;;;;9.70;1.70;;;;;;;9.54;100.00;96391.22;6181405;23;20008;-84
2023/03/29 08:34:51;;;;;;;12.30;1.90;;;;;;;9.59;100.00;96388.97;6155750;23;20009;-84
2023/03/29 08:37:23;;;;;;;5.13;1.73;;;;;;;9.62;100.00;96388.69;6179904;23;20207;-85
2023/03/29 08:39:51;;;;;;;3.70;1.40;;;;;;;9.98;100.00;96382.59;6155451;23;20087;-84
2023/03/29 08:43:04;;;;;;;5.93;2.07;;;;;;;9.90;100.00;96378.91;6178016;23;20017;-84
2023/03/29 08:45:51;;;;;;;3.97;1.20;;;;;;;9.88;100.00;96390.53;6180465;23;20356;-84
2023/03/29 08:48:22;;;;;;;2.70;1.30;;;;;;;9.87;100.00;96386.28;6156640;23;20067;-84
2023/03/29 08:51:32;;;;;;;6.03;1.90;;;;;;;10.13;100.00;96389.78;6157390;23;20008;-84
2023/03/29 08:54:23;;;;;;;5.80;2.00;;;;;;;10.35;100.00;96385.03;6206769;23;20009;-84
2023/03/29 08:57:32;;;;;;;5.03;1.57;;;;;;;10.49;100.00;96392.34;6206419;23;20017;-85
2023/03/29 09:00:18;;;;;;;3.23;1.40;;;;;;;10.18;100.00;96397.19;6187905;23;20017;-84
2023/03/29 09:02:45;;;;;;;3.57;1.50;;;;;;;10.27;100.00;96395.50;6179708;23;20388;-84
2023/03/29 09:05:50;;;;;;;3.77;1.80;;;;;;;10.20;100.00;96402.31;6179996;23;20009;-84
2023/03/29 09:08:46;;;;;;;3.70;1.53;;;;;;;10.34;100.00;96396.53;6155890;23;20232;-84
2023/03/29 09:11:21;;;;;;;3.57;1.30;;;;;;;10.50;100.00;96403.72;6179275;23;20083;-84
2023/03/29 09:14:28;;;;;;;6.97;2.43;;;;;;;10.39;100.00;96399.50;6155291;23;20036;-84
2023/03/29 09:17:25;;;;;;;9.90;1.90;;;;;;;10.45;100.00;96396.25;6153353;23;20401;-84
2023/03/29 09:19:53;;;;;;;4.30;1.93;;;;;;;10.42;100.00;96393.94;6153418;23;20023;-84
2023/03/29 09:22:45;;;;;;;6.20;2.83;;;;;;;10.49;100.00;96399.41;6154534;23;20339;-84
2023/03/29 09:25:33;;;;;;;5.47;1.80;;;;;;;10.46;100.00;96395.31;6155066;23;20023;-84
2023/03/29 09:28:07;;;;;;;1.90;1.00;;;;;;;10.52;100.00;96396.47;6179469;23;20035;-84
2023/03/29 09:30:57;;;;;;;3.17;1.92;;;;;;;10.39;100.00;96386.34;6179103;23;20087;-84
2023/03/29 09:33:54;;;;;;;4.67;1.50;;;;;;;10.53;100.00;96393.72;6180305;23;20464;-84
2023/03/29 09:36:38;;;;;;;8.03;1.93;;;;;;;10.73;100.00;96383.78;6155646;23;20012;-84
2023/03/29 09:39:12;;;;;;;3.43;1.40;;;;;;;10.73;100.00;96382.94;6179977;23;20079;-84
2023/03/29 09:41:49;;;;;;;4.37;1.27;;;;;;;11.00;100.00;96374.88;6203507;23;20349;-85
2023/03/29 09:44:21;;;;;;;3.60;1.30;;;;;;;10.90;100.00;96384.69;6203976;23;20017;-84
2023/03/29 09:46:57;;;;;;;3.63;1.37;;;;;;;10.66;100.00;96381.91;6179742;23;20067;-84
2023/03/29 09:49:31;;;;;;;3.07;1.23;;;;;;;10.53;100.00;96388.44;6179806;23;20017;-84
2023/03/29 09:52:10;;;;;;;3.40;1.43;;;;;;;10.62;100.00;96382.22;6179381;23;20016;-84
2023/03/29 09:54:36;;;;;;;4.03;1.77;;;;;;;10.60;100.00;96378.94;6179285;23;20434;-84
2023/03/29 09:57:20;;;;;;;2.93;1.10;;;;;;;10.77;100.00;96379.03;6181392;23;20047;-84
2023/03/29 09:59:50;;;;;;;5.90;2.07;;;;;;;11.10;100.00;96374.75;6179701;23;20445;-84
2023/03/29 10:02:18;;;;;;;3.83;1.50;;;;;;;11.29;100.00;96371.00;6178742;23;20021;-84
2023/03/29 10:04:44;;;;;;;3.57;1.40;;;;;;;11.14;100.00;96362.09;6178917;23;20078;-84
2023/03/29 10:07:19;;;;;;;3.47;1.40;;;;;;;11.34;100.00;96360.84;6179316;23;20778;-84
2023/03/29 10:09:54;;;;;;;5.50;2.10;;;;;;;11.68;100.00;96357.28;6156980;23;20099;-87
2023/03/29 10:12:20;;;;;;;8.47;4.33;;;;;;;12.00;100.00;96353.84;6180858;23;20341;-89
2023/03/29 10:14:53;;;;;;;5.00;2.20;;;;;;;12.14;100.00;96357.63;6180676;23;20001;-86
2023/03/29 10:17:22;;;;;;;3.33;1.50;;;;;;;12.46;100.00;96365.50;6179540;23;20020;-84
2023/03/29 10:20:00;;;;;;;4.13;1.40;;;;;;;12.56;100.00;96356.59;6204447;23;20080;-85
2023/03/29 10:22:31;;;;;;;8.17;2.00;;;;;;;12.80;100.00;96369.72;6178452;23;20075;-85
2023/03/29 10:24:57;;;;;;;6.53;1.93;;;;;;;12.96;100.00;96364.38;6153993;23;20044;-84
2023/03/29 10:27:34;;;;;;;5.07;1.63;;;;;;;13.28;100.00;96361.78;6177324;23;20013;-84
2023/03/29 10:30:08;;;;;;;6.40;2.03;;;;;;;13.28;100.00;96365.28;6178529;23;20013;-84
2023/03/29 10:32:35;;;;;;;7.30;1.40;;;;;;;13.19;100.00;96367.09;6203410;23;20095;-84
2023/03/29 10:35:22;;;;;;;3.03;1.50;;;;;;;13.62;100.00;96357.00;6204679;23;20009;-85
2023/03/29 10:38:08;;;;;;;6.33;1.50;;;;;;;13.76;100.00;96358.06;6181228;23;20021;-84
2023/03/29 10:40:44;;;;;;;9.43;6.23;;;;;;;14.17;100.00;96357.75;6205487;23;20350;-84
2023/03/29 10:43:31;;;;;;;6.40;2.53;;;;;;;13.83;100.00;96361.63;6191069;23;20017;-84
2023/03/29 10:46:25;;;;;;;5.23;1.50;;;;;;;13.59;100.00;96359.16;6206183;23;20051;-84
2023/03/29 10:48:56;;;;;;;3.07;1.40;;;;;;;13.24;100.00;96356.03;6178807;23;20013;-84
2023/03/29 10:51:26;;;;;;;3.47;1.43;;;;;;;12.84;100.00;96357.81;6177698;23;20046;-84
2023/03/29 10:53:52;;;;;;;3.37;1.57;;;;;;;13.18;100.00;96354.09;6178600;23;20429;-84
2023/03/29 10:56:37;;;;;;;6.27;1.90;;;;;;;13.42;100.00;96353.16;6180037;23;20028;-84
2023/03/29 10:59:27;;;;;;;7.17;2.73;;;;;;;13.08;100.00;96367.50;6154364;23;20009;-84
2023/03/29 11:02:13;;;;;;;4.40;1.57;;;;;;;13.26;100.00;96362.00;6177867;23;20013;-84
2023/03/29 11:04:51;;;;;;;4.67;1.80;;;;;;;13.05;100.00;96361.72;6153643;23;20079;-84
2023/03/29 11:07:54;;;;;;;3.77;1.50;;;;;;;13.40;100.00;96355.97;6179215;23;20687;-84
2023/03/29 11:10:38;;;;;;;4.40;1.30;;;;;;;13.24;100.00;96361.31;6178867;23;20248;-84
2023/03/29 11:13:11;;;;;;;5.30;1.73;;;;;;;13.66;100.00;96354.81;6204254;23;20013;-84
2023/03/29 11:16:04;;;;;;;5.32;2.13;;;;;;;14.41;100.00;96347.94;6179817;23;20504;-84
2023/03/29 11:18:52;;;;;;;5.07;2.30;;;;;;;14.75;100.00;96348.25;6179160;23;20013;-84
2023/03/29 11:21:34;;;;;;;8.07;2.87;;;;;;;14.85;100.00;96351.47;6178946;23;20441;-84
2023/03/29 11:24:23;;;;;;;1.80;0.95;;;;;;;15.27;100.00;96344.66;6154308;23;20016;-84
2023/03/29 11:27:13;;;;;;;4.33;1.87;;;;;;;14.92;97.67;96348.88;6154504;23;20477;-84
2023/03/29 11:30:06;;;;;;;4.27;2.00;;;;;;;15.62;100.00;96341.38;6178743;23;20019;-81
2023/03/29 11:32:38;;;;;;;5.75;1.73;;;;;;;15.56;100.00;96345.63;6166465;23;20100;-82
2023/03/29 11:35:06;;;;;;;3.90;1.70;;;;;;;15.75;97.75;96328.28;6154569;23;20719;-81
2023/03/29 11:37:58;;;;;;;4.23;1.70;;;;;;;15.53;99.12;96327.44;6154577;23;20025;-82
2023/03/29 11:40:33;;;;;;;5.30;2.40;;;;;;;16.56;90.98;96322.59;6178849;23;20021;-84
2023/03/29 11:43:01;;;;;;;4.75;1.92;;;;;;;15.67;95.61;96313.31;6177913;23;20084;-82
2023/03/29 11:46:12;;;;;;;4.05;1.50;;;;;;;16.53;89.01;96296.44;6206266;23;20021;-83
2023/03/29 11:48:52;;;;;;;5.20;2.17;;;;;;;17.25;88.73;96305.84;6205897;23;20040;-83
2023/03/29 11:51:26;;;;;;;4.95;2.13;;;;;;;16.05;90.16;96313.06;6180916;23;20020;-83
2023/03/29 11:54:24;;;;;;;3.47;1.52;;;;;;;16.05;92.84;96302.44;6205646;23;20035;-82
2023/03/29 11:57:11;;;;;;;6.65;1.50;;;;;;;15.85;91.31;96301.44;6180357;23;20017;-83
2023/03/29 11:59:43;;;;;;;6.82;1.52;;;;;;;15.73;97.99;96303.81;6181179;23;20499;-83
2023/03/29 12:02:39;;;;;;;4.80;1.83;;;;;;;15.24;99.09;96318.53;6180889;23;20013;-82
2023/03/29 12:05:14;;;;;;;6.40;2.35;;;;;;;15.01;99.39;96312.56;6155712;23;20013;-83
2023/03/29 12:07:58;;;;;;;2.45;1.40;;;;;;;14.93;97.90;96310.84;6181170;23;20016;-83
2023/03/29 12:10:31;;;;;;;5.40;1.60;;;;;;;15.04;97.65;96305.06;6180633;23;20047;-82
2023/03/29 12:13:04;;;;;;;4.25;1.48;;;;;;;15.13;97.81;96297.84;6205183;23;20017;-83